McClellan, California
Current Conditions -  °F | °C
As of 3:45 PM on Tuesday 25 Nov 2014 (Local Time) from KMHR Reporting Station
Few Clouds Few Clouds  
Wind Chill: 64°   Ceiling: Unl
Heat Index: 64°   Visibility: 10mi
Dew Point: 43°   Wind: 7mph
Humidity: 45%   Direction: 320°NW
Pressure: 30.38"   Gusts: NA
Location:  38.6632°N, 121.383°W
Report Text: KMHR 252345Z 32006KT 10SM FEW180 18/06 A3038
Loading
Personal Weather Stations






























Interactive Weather Map New forecast layout! Learn more

10-Day Weather Forecast

Advertisements
Track Severe Weather on mobile